Terminal Aerodrome Forecast
Issued by NWS Kansas City/Pleasant Hill, MO

Home | Current Version | Previous Version | Text Only | Print | Product List | Glossary On
Versions: 1 2 3 4 5 6 7 8 9 10 11 12 13 14 15
000
FTUS43 KEAX 190500
TAFMCI
TAF
KMCI 190520Z 1906/2006 16005KT P6SM SKC
     FM190900 17005KT P6SM VCTS BKN060CB
     FM191200 17005KT P6SM SCT120
     FM191800 VRB06KT P6SM SCT250=

USA.gov is the U.S. government's official web portal to all federal, state and local government web resources and services.